createdAt,value
2018-05-10T00:00:49.218Z,15.34
2018-05-10T00:03:16.801Z,15.31
2018-05-10T00:05:44.382Z,15.18
2018-05-10T00:08:12.064Z,15.12
2018-05-10T00:10:39.597Z,15.16
2018-05-10T00:13:07.101Z,15.16
2018-05-10T00:15:34.622Z,15.18
2018-05-10T00:18:02.190Z,15.14
2018-05-10T00:20:29.733Z,15.08
2018-05-10T00:22:57.282Z,15.10
2018-05-10T00:25:25.753Z,15.14
2018-05-10T00:27:53.302Z,15.15
2018-05-10T00:30:20.858Z,15.18
2018-05-10T00:32:48.369Z,15.18
2018-05-10T00:35:16.522Z,15.10
2018-05-10T00:37:44.170Z,15.02
2018-05-10T00:40:11.827Z,15.00
2018-05-10T00:42:39.386Z,14.98
2018-05-10T00:45:07.066Z,15.02
2018-05-10T00:47:34.649Z,15.05
2018-05-10T00:50:02.209Z,15.05
2018-05-10T00:52:29.789Z,15.03
2018-05-10T00:54:58.279Z,15.04
2018-05-10T00:57:25.869Z,15.05
2018-05-10T00:59:53.469Z,15.09
2018-05-10T01:02:21.172Z,15.10
2018-05-10T01:04:48.778Z,15.08
2018-05-10T01:07:17.784Z,15.06
2018-05-10T01:09:45.428Z,14.99
2018-05-10T01:12:13.084Z,14.88
2018-05-10T01:14:40.715Z,14.80
2018-05-10T01:17:08.435Z,14.72
2018-05-10T01:19:36.114Z,14.70
2018-05-10T01:22:03.813Z,14.73
2018-05-10T01:24:31.643Z,14.72
2018-05-10T01:26:59.288Z,14.69
2018-05-10T01:29:27.001Z,14.71
2018-05-10T01:31:54.723Z,14.74
2018-05-10T01:34:22.381Z,14.72
2018-05-10T01:36:49.967Z,14.68
2018-05-10T01:39:18.106Z,14.68
2018-05-10T01:41:45.758Z,14.66
2018-05-10T01:44:13.364Z,14.64
2018-05-10T01:46:41.007Z,14.56
2018-05-10T01:49:08.694Z,14.49
2018-05-10T01:54:26.366Z,14.31
2018-05-10T01:56:53.971Z,14.32
2018-05-10T01:59:21.560Z,14.30
2018-05-10T02:01:49.613Z,14.30
2018-05-10T02:04:17.207Z,14.31
2018-05-10T02:06:44.875Z,14.34
2018-05-10T02:09:12.613Z,14.25
2018-05-10T02:11:40.238Z,14.09
2018-05-10T02:14:07.872Z,14.04
2018-05-10T02:16:35.497Z,14.00
2018-05-10T02:19:03.110Z,13.94
2018-05-10T02:21:30.685Z,13.95
2018-05-10T02:23:58.287Z,13.99
2018-05-10T02:26:26.381Z,14.00
2018-05-10T02:28:54.031Z,14.04
2018-05-10T02:31:21.649Z,14.06
2018-05-10T02:33:49.277Z,13.95
2018-05-10T02:36:16.868Z,13.92
2018-05-10T02:38:44.420Z,13.95
2018-05-10T02:41:12.004Z,13.95
2018-05-10T02:43:39.631Z,13.93
2018-05-10T02:46:07.179Z,13.87
2018-05-10T02:48:34.682Z,13.87
2018-05-10T02:51:02.218Z,13.90
2018-05-10T02:53:29.737Z,13.94
2018-05-10T02:55:57.292Z,13.95
2018-05-10T02:58:24.819Z,13.98
2018-05-10T03:00:52.345Z,13.96
2018-05-10T03:03:19.928Z,13.96
2018-05-10T03:05:47.448Z,13.94
2018-05-10T03:08:14.949Z,13.88
2018-05-10T03:10:42.481Z,13.81
2018-05-10T03:13:10.017Z,13.79
2018-05-10T03:15:37.800Z,13.81
2018-05-10T03:18:05.377Z,13.79
2018-05-10T03:20:32.908Z,13.81
2018-05-10T03:23:00.432Z,13.85
2018-05-10T03:25:28.305Z,13.84
2018-05-10T03:27:55.861Z,13.78
2018-05-10T03:30:23.412Z,13.72
2018-05-10T03:32:50.940Z,13.64
2018-05-10T03:35:18.501Z,13.57
2018-05-10T03:37:46.062Z,13.54
2018-05-10T03:40:13.659Z,13.60
2018-05-10T03:42:41.280Z,13.66
2018-05-10T03:45:08.967Z,13.71
2018-05-10T03:47:36.657Z,13.70
2018-05-10T03:50:04.630Z,13.69
2018-05-10T03:52:32.258Z,13.70
2018-05-10T03:54:59.870Z,13.73
2018-05-10T03:57:28.237Z,13.67
2018-05-10T03:59:55.785Z,13.67
2018-05-10T04:02:35.325Z,13.62
2018-05-10T04:05:14.559Z,13.61
2018-05-10T04:07:53.906Z,13.62
2018-05-10T04:10:34.159Z,13.65
2018-05-10T04:13:01.734Z,13.58
2018-05-10T04:15:29.432Z,13.59
2018-05-10T04:17:56.993Z,13.63
2018-05-10T04:20:24.559Z,13.68
2018-05-10T04:22:52.069Z,13.75
2018-05-10T04:25:19.571Z,13.78
2018-05-10T04:27:47.119Z,13.80
2018-05-10T04:30:14.638Z,13.76
2018-05-10T04:32:42.131Z,13.71
2018-05-10T04:35:10.344Z,13.77
2018-05-10T04:37:37.928Z,13.73
2018-05-10T04:40:05.496Z,13.73
2018-05-10T04:42:33.047Z,13.70
2018-05-10T04:45:00.589Z,13.66
2018-05-10T04:47:28.164Z,13.71
2018-05-10T04:49:55.737Z,13.79
2018-05-10T04:52:23.296Z,13.84
2018-05-10T04:54:50.923Z,13.88
2018-05-10T04:57:18.634Z,13.94
2018-05-10T04:59:46.213Z,14.04
2018-05-10T05:02:14.184Z,14.10
2018-05-10T05:04:41.807Z,14.20
2018-05-10T05:07:09.642Z,14.30
2018-05-10T05:09:37.283Z,14.37
2018-05-10T05:12:04.897Z,14.43
2018-05-10T05:14:32.483Z,14.50
2018-05-10T05:17:00.038Z,14.60
2018-05-10T05:19:27.647Z,14.62
2018-05-10T05:21:55.258Z,14.71
2018-05-10T05:24:22.776Z,14.80
2018-05-10T05:26:50.342Z,14.88
2018-05-10T05:29:17.934Z,14.97
2018-05-10T05:31:45.543Z,15.06
2018-05-10T05:34:13.087Z,15.13
2018-05-10T05:36:40.674Z,15.06
2018-05-10T05:39:08.186Z,15.19
2018-05-10T05:41:35.771Z,15.29
2018-05-10T05:44:03.356Z,15.38
2018-05-10T05:46:31.024Z,15.47
2018-05-10T05:48:58.631Z,15.55
2018-05-10T05:51:26.275Z,15.62
2018-05-10T05:53:53.820Z,15.69
2018-05-10T05:56:21.362Z,15.80
2018-05-10T05:58:48.901Z,15.89
2018-05-10T06:01:16.450Z,16.02
2018-05-10T06:03:44.026Z,16.15
2018-05-10T06:06:11.544Z,16.24
2018-05-10T06:08:39.224Z,16.34
2018-05-10T06:11:06.815Z,16.41
2018-05-10T06:13:34.388Z,16.57
2018-05-10T06:16:02.192Z,16.75
2018-05-10T06:18:29.811Z,16.82
2018-05-10T06:20:57.441Z,17.03
2018-05-10T06:23:25.281Z,17.17
2018-05-10T06:25:53.051Z,17.34
2018-05-10T06:28:20.728Z,17.50
2018-05-10T06:30:48.253Z,17.64
2018-05-10T06:33:16.913Z,17.77
2018-05-10T06:35:44.582Z,17.98
2018-05-10T06:38:12.100Z,18.14
2018-05-10T06:40:39.867Z,18.30
2018-05-10T06:43:07.681Z,18.48
2018-05-10T06:45:35.233Z,18.46
2018-05-10T06:48:02.780Z,18.60
2018-05-10T06:50:30.305Z,18.50
2018-05-10T06:52:57.852Z,18.61
2018-05-10T06:55:26.241Z,18.79
2018-05-10T06:57:54.013Z,18.95
2018-05-10T07:00:21.657Z,19.16
2018-05-10T07:02:49.264Z,19.30
2018-05-10T07:05:16.867Z,19.42
2018-05-10T07:07:44.940Z,19.59
2018-05-10T07:10:12.565Z,19.65
2018-05-10T07:15:16.870Z,19.85
2018-05-10T07:17:45.360Z,20.06
2018-05-10T07:20:13.135Z,20.11
2018-05-10T07:22:40.840Z,20.25
2018-05-10T07:25:08.477Z,20.48
2018-05-10T07:27:36.127Z,20.64
2018-05-10T07:30:03.806Z,20.74
2018-05-10T07:32:31.436Z,20.80
2018-05-10T07:34:58.987Z,21.08
2018-05-10T07:37:30.306Z,21.35
2018-05-10T07:39:58.006Z,21.30
2018-05-10T07:42:25.727Z,21.50
2018-05-10T07:44:53.343Z,21.56
2018-05-10T07:47:20.905Z,21.66
2018-05-10T07:49:48.472Z,21.86
2018-05-10T07:52:17.497Z,22.02
2018-05-10T07:54:45.012Z,22.04
2018-05-10T07:57:12.871Z,21.92
2018-05-10T07:59:40.513Z,22.13
2018-05-10T08:02:09.214Z,22.29
2018-05-10T08:04:36.830Z,22.02
2018-05-10T08:07:05.564Z,22.19
2018-05-10T08:09:33.892Z,22.47
2018-05-10T08:12:02.859Z,22.61
2018-05-10T08:14:31.653Z,22.92
2018-05-10T08:16:59.386Z,22.91
2018-05-10T08:19:29.073Z,23.08
2018-05-10T08:21:56.807Z,23.18
2018-05-10T08:24:24.497Z,23.09
2018-05-10T08:26:52.297Z,22.80
2018-05-10T08:29:20.091Z,22.46
2018-05-10T08:31:47.806Z,22.83
2018-05-10T08:34:16.115Z,22.94
2018-05-10T08:36:45.555Z,23.20
2018-05-10T08:39:13.435Z,22.35
2018-05-10T08:41:41.136Z,22.20
2018-05-10T08:44:08.778Z,21.74
2018-05-10T08:46:36.364Z,21.65
2018-05-10T08:49:04.181Z,21.73
2018-05-10T08:51:32.029Z,22.01
2018-05-10T08:54:00.976Z,22.47
2018-05-10T08:56:30.534Z,22.80
2018-05-10T08:58:59.222Z,22.83
2018-05-10T09:01:27.402Z,23.00
2018-05-10T09:03:55.203Z,23.37
2018-05-10T09:06:23.399Z,23.74
2018-05-10T09:08:52.013Z,23.79
2018-05-10T09:11:20.615Z,23.93
2018-05-10T09:13:50.642Z,24.04
2018-05-10T09:16:19.902Z,24.01
2018-05-10T09:18:47.655Z,23.47
2018-05-10T09:21:16.749Z,23.39
2018-05-10T09:23:44.273Z,23.52
2018-05-10T09:26:18.439Z,23.68
2018-05-10T09:28:46.128Z,23.02
2018-05-10T09:31:16.370Z,22.71
2018-05-10T09:33:44.105Z,23.05
2018-05-10T09:36:11.734Z,23.47
2018-05-10T09:38:39.528Z,23.49
2018-05-10T09:41:08.298Z,23.55
2018-05-10T09:43:36.043Z,23.81
2018-05-10T09:46:06.024Z,23.81
2018-05-10T09:48:33.553Z,23.94
2018-05-10T09:51:01.500Z,23.38
2018-05-10T09:53:29.817Z,23.32
2018-05-10T09:55:57.437Z,23.37
2018-05-10T09:58:25.858Z,23.65
2018-05-10T10:00:54.547Z,24.12
2018-05-10T10:03:25.248Z,24.51
2018-05-10T10:05:53.488Z,24.82
2018-05-10T10:08:21.822Z,25.10
2018-05-10T10:10:49.465Z,25.17
2018-05-10T10:13:17.128Z,25.39
2018-05-10T10:15:46.933Z,24.82
2018-05-10T10:18:14.656Z,24.98
2018-05-10T10:20:42.500Z,24.66
2018-05-10T10:23:12.448Z,25.14
2018-05-10T10:25:44.265Z,24.79
2018-05-10T10:28:12.700Z,25.01
2018-05-10T10:30:41.174Z,24.58
2018-05-10T10:33:13.691Z,24.74
2018-05-10T10:35:41.369Z,24.68
2018-05-10T10:38:09.014Z,24.56
2018-05-10T10:40:36.691Z,24.53
2018-05-10T10:43:04.312Z,24.50
2018-05-10T10:45:33.228Z,24.48
2018-05-10T10:48:01.020Z,24.61
2018-05-10T10:50:28.789Z,25.09
2018-05-10T10:52:57.403Z,24.17
2018-05-10T10:55:25.507Z,24.48
2018-05-10T10:57:54.367Z,25.06
2018-05-10T11:00:22.072Z,25.17
2018-05-10T11:02:49.749Z,24.68
2018-05-10T11:05:17.425Z,24.86
2018-05-10T11:07:45.072Z,24.90
2018-05-10T11:10:12.744Z,24.87
2018-05-10T11:12:40.384Z,25.47
2018-05-10T11:15:08.086Z,25.85
2018-05-10T11:17:36.702Z,25.33
2018-05-10T11:20:04.394Z,25.12
2018-05-10T11:22:32.161Z,25.42
2018-05-10T11:24:59.646Z,25.98
2018-05-10T11:27:28.108Z,26.48
2018-05-10T11:29:56.349Z,26.55
2018-05-10T11:32:24.638Z,26.46
2018-05-10T11:37:26.921Z,26.27
2018-05-10T11:39:54.609Z,25.76
2018-05-10T11:42:22.814Z,26.12
2018-05-10T11:44:52.230Z,26.44
2018-05-10T11:47:21.102Z,25.40
2018-05-10T11:49:49.988Z,26.04
2018-05-10T11:52:17.716Z,26.19
2018-05-10T11:54:45.539Z,26.34
2018-05-10T11:57:15.366Z,25.77
2018-05-10T11:59:42.988Z,24.99
2018-05-10T12:02:10.818Z,25.10
2018-05-10T12:04:38.504Z,25.58
2018-05-10T12:07:06.711Z,25.69
2018-05-10T12:09:35.203Z,24.87
2018-05-10T12:12:04.208Z,25.22
2018-05-10T12:14:33.232Z,25.70
2018-05-10T12:17:00.919Z,25.98
2018-05-10T12:19:29.379Z,25.36
2018-05-10T12:21:57.866Z,25.54
2018-05-10T12:24:25.596Z,25.62
2018-05-10T12:26:53.226Z,25.55
2018-05-10T12:29:20.872Z,25.86
2018-05-10T12:31:48.699Z,26.10
2018-05-10T12:34:17.796Z,26.29
2018-05-10T12:36:45.421Z,26.01
2018-05-10T12:39:14.395Z,25.74
2018-05-10T12:41:42.147Z,25.61
2018-05-10T12:44:09.686Z,25.74
2018-05-10T12:46:37.569Z,25.74
2018-05-10T12:49:05.338Z,26.10
2018-05-10T12:51:33.803Z,26.38
2018-05-10T12:54:01.505Z,26.37
2018-05-10T12:56:29.390Z,26.29
2018-05-10T12:58:56.939Z,26.48
2018-05-10T13:01:24.727Z,26.33
2018-05-10T13:03:53.523Z,26.50
2018-05-10T13:06:21.226Z,26.34
2018-05-10T13:08:49.174Z,25.86
2018-05-10T13:11:18.429Z,25.66
2018-05-10T13:13:46.125Z,25.74
2018-05-10T13:16:15.986Z,25.69
2018-05-10T13:18:45.921Z,25.78
2018-05-10T13:21:13.973Z,25.75
2018-05-10T13:23:41.753Z,25.79
2018-05-10T13:26:10.292Z,25.72
2018-05-10T13:28:38.348Z,25.55
2018-05-10T13:31:06.797Z,25.47
2018-05-10T13:33:35.123Z,25.30
2018-05-10T13:36:02.846Z,25.31
2018-05-10T13:38:30.529Z,25.29
2018-05-10T13:40:58.192Z,25.35
2018-05-10T13:43:25.797Z,25.26
2018-05-10T13:45:53.509Z,25.27
2018-05-10T13:48:21.169Z,24.99
2018-05-10T13:50:48.993Z,23.99
2018-05-10T13:53:16.680Z,24.01
2018-05-10T13:55:44.362Z,23.71
2018-05-10T13:58:12.026Z,23.78
2018-05-10T14:00:39.594Z,23.51
2018-05-10T14:03:07.392Z,23.47
2018-05-10T14:05:35.311Z,23.69
2018-05-10T14:08:03.018Z,23.89
2018-05-10T14:10:30.925Z,23.95
2018-05-10T14:12:58.596Z,23.80
2018-05-10T14:15:26.337Z,23.61
2018-05-10T14:20:27.692Z,21.90
2018-05-10T14:22:56.271Z,21.97
2018-05-10T14:25:23.992Z,21.73
2018-05-10T14:27:52.191Z,21.50
2018-05-10T14:30:19.789Z,21.40
2018-05-10T14:32:48.274Z,21.39
2018-05-10T14:35:17.520Z,21.76
2018-05-10T14:37:45.156Z,21.65
2018-05-10T14:40:13.239Z,21.89
2018-05-10T14:42:40.907Z,21.89
2018-05-10T14:45:08.628Z,22.05
2018-05-10T14:47:36.543Z,21.80
2018-05-10T14:50:05.121Z,21.78
2018-05-10T14:52:36.593Z,21.57
2018-05-10T14:57:51.792Z,21.72
2018-05-10T15:00:27.411Z,21.77
2018-05-10T15:03:18.825Z,21.84
2018-05-10T15:12:02.122Z,22.62
2018-05-10T15:14:56.979Z,22.88
2018-05-10T15:23:38.025Z,22.65
2018-05-10T15:31:44.434Z,22.95
2018-05-10T15:37:16.717Z,22.89
2018-05-10T15:39:51.189Z,22.69
2018-05-10T15:42:39.875Z,22.63
2018-05-10T15:45:18.973Z,22.65
2018-05-10T15:47:48.405Z,22.74
2018-05-10T15:50:21.912Z,22.81
2018-05-10T15:52:50.217Z,22.62
2018-05-10T15:55:20.477Z,22.12
2018-05-10T15:57:49.423Z,21.74
2018-05-10T16:00:19.863Z,21.84
2018-05-10T16:02:47.562Z,22.11
2018-05-10T16:05:17.644Z,22.23
2018-05-10T16:07:45.823Z,22.16
2018-05-10T16:10:16.997Z,22.17
2018-05-10T16:12:45.661Z,22.19
2018-05-10T16:15:14.759Z,22.26
2018-05-10T16:17:44.929Z,22.36
2018-05-10T16:20:15.701Z,22.47
2018-05-10T16:22:43.823Z,22.59
2018-05-10T16:27:57.924Z,22.24
2018-05-10T16:30:28.798Z,22.31
2018-05-10T16:32:57.039Z,22.26
2018-05-10T16:35:24.867Z,22.18
2018-05-10T16:37:52.631Z,22.02
2018-05-10T16:40:20.446Z,22.04
2018-05-10T16:42:48.916Z,22.07
2018-05-10T16:45:19.835Z,22.11
2018-05-10T16:47:47.644Z,22.09
2018-05-10T16:50:15.410Z,22.09
2018-05-10T16:52:44.021Z,22.12
2018-05-10T16:55:13.406Z,22.09
2018-05-10T16:57:41.357Z,22.08
2018-05-10T17:00:09.096Z,21.99
2018-05-10T17:02:36.844Z,21.93
2018-05-10T17:05:06.041Z,21.87
2018-05-10T17:07:34.745Z,21.74
2018-05-10T17:10:02.416Z,21.64
2018-05-10T17:12:30.715Z,21.53
2018-05-10T17:14:58.434Z,21.43
2018-05-10T17:17:26.151Z,21.25
2018-05-10T17:19:53.816Z,20.78
2018-05-10T17:22:21.475Z,20.84
2018-05-10T17:24:49.134Z,20.90
2018-05-10T17:27:17.380Z,20.94
2018-05-10T17:29:45.054Z,20.97
2018-05-10T17:32:12.708Z,20.78
2018-05-10T17:34:40.367Z,20.69
2018-05-10T17:37:08.064Z,20.54
2018-05-10T17:39:35.819Z,20.53
2018-05-10T17:42:03.501Z,20.56
2018-05-10T17:44:31.354Z,20.64
2018-05-10T17:46:59.068Z,20.63
2018-05-10T17:49:27.399Z,20.51
2018-05-10T17:51:54.995Z,20.42
2018-05-10T17:54:22.684Z,20.37
2018-05-10T17:56:50.320Z,20.33
2018-05-10T17:59:18.150Z,20.28
2018-05-10T18:01:45.775Z,20.31
2018-05-10T18:04:13.385Z,20.34
2018-05-10T18:06:41.747Z,20.32
2018-05-10T18:09:09.353Z,20.22
2018-05-10T18:11:38.283Z,20.00
2018-05-10T18:14:05.996Z,19.97
2018-05-10T18:16:33.690Z,19.78
2018-05-10T18:19:01.353Z,19.75
2018-05-10T18:21:29.308Z,19.70
2018-05-10T18:23:56.939Z,19.62
2018-05-10T18:26:24.723Z,19.54
2018-05-10T18:28:52.471Z,19.60
2018-05-10T18:31:20.687Z,19.56
2018-05-10T18:33:48.361Z,19.55
2018-05-10T18:36:16.069Z,19.52
2018-05-10T18:38:43.773Z,19.46
2018-05-10T18:41:12.802Z,19.45
2018-05-10T18:43:41.390Z,19.36
2018-05-10T18:46:08.985Z,19.30
2018-05-10T18:48:36.660Z,19.26
2018-05-10T18:51:04.358Z,19.17
2018-05-10T18:53:31.995Z,19.03
2018-05-10T18:55:59.705Z,18.97
2018-05-10T18:58:28.302Z,19.02
2018-05-10T19:00:55.971Z,19.04
2018-05-10T19:03:23.645Z,19.00
2018-05-10T19:05:51.433Z,18.89
2018-05-10T19:08:20.712Z,18.84
2018-05-10T19:10:48.346Z,18.86
2018-05-10T19:13:16.100Z,18.84
2018-05-10T19:15:43.752Z,18.78
2018-05-10T19:18:11.372Z,18.70
2018-05-10T19:20:39.054Z,18.43
2018-05-10T19:23:06.731Z,18.26
2018-05-10T19:25:34.697Z,18.21
2018-05-10T19:28:02.436Z,18.20
2018-05-10T19:30:30.172Z,18.16
2018-05-10T19:32:57.813Z,18.00
2018-05-10T19:35:25.719Z,17.98
2018-05-10T19:37:53.259Z,18.08
2018-05-10T19:40:20.814Z,18.02
2018-05-10T19:42:48.406Z,18.04
2018-05-10T19:45:16.079Z,18.10
2018-05-10T19:47:44.277Z,18.15
2018-05-10T19:50:11.871Z,18.19
2018-05-10T19:52:39.488Z,18.23
2018-05-10T19:55:07.071Z,18.23
2018-05-10T19:57:34.794Z,18.27
2018-05-10T20:00:02.388Z,18.31
2018-05-10T20:02:31.750Z,18.32
2018-05-10T20:07:26.247Z,18.38
2018-05-10T20:09:54.041Z,18.33
2018-05-10T20:12:22.791Z,18.38
2018-05-10T20:14:50.435Z,18.42
2018-05-10T20:17:19.888Z,18.45
2018-05-10T20:19:47.767Z,18.32
2018-05-10T20:22:15.420Z,18.16
2018-05-10T20:24:43.723Z,17.97
2018-05-10T20:27:11.742Z,17.82
2018-05-10T20:29:39.711Z,17.91
2018-05-10T20:32:07.536Z,17.90
2018-05-10T20:34:35.463Z,17.90
2018-05-10T20:37:03.349Z,17.92
2018-05-10T20:39:31.448Z,17.95
2018-05-10T20:41:59.551Z,17.99
2018-05-10T20:44:27.328Z,18.01
2018-05-10T20:46:54.991Z,17.99
2018-05-10T20:49:22.690Z,17.96
2018-05-10T20:51:50.424Z,17.96
2018-05-10T20:54:18.070Z,17.84
2018-05-10T20:56:45.719Z,17.75
2018-05-10T20:59:13.346Z,17.69
2018-05-10T21:01:41.294Z,17.69
2018-05-10T21:04:08.964Z,17.62
2018-05-10T21:06:36.649Z,17.49
2018-05-10T21:09:04.399Z,17.47
2018-05-10T21:11:33.238Z,17.43
2018-05-10T21:14:00.896Z,17.40
2018-05-10T21:16:28.537Z,17.29
2018-05-10T21:18:56.169Z,17.13
2018-05-10T21:21:23.814Z,17.03
2018-05-10T21:23:51.461Z,16.94
2018-05-10T21:26:19.128Z,16.89
2018-05-10T21:28:46.740Z,16.84
2018-05-10T21:31:14.384Z,16.91
2018-05-10T21:33:42.016Z,17.01
2018-05-10T21:36:09.695Z,16.88
2018-05-10T21:38:37.402Z,16.82
2018-05-10T21:41:05.078Z,16.80
2018-05-10T21:43:32.734Z,16.83
2018-05-10T21:46:00.365Z,16.88
2018-05-10T21:48:28.182Z,16.75
2018-05-10T21:50:55.888Z,16.73
2018-05-10T21:53:23.909Z,16.72
2018-05-10T21:55:52.445Z,16.75
2018-05-10T21:58:20.261Z,16.73
2018-05-10T22:00:48.007Z,16.75
2018-05-10T22:03:16.423Z,16.69
2018-05-10T22:05:44.394Z,16.50
2018-05-10T22:08:12.348Z,16.42
2018-05-10T22:10:39.902Z,16.22
2018-05-10T22:13:07.425Z,16.27
2018-05-10T22:15:34.947Z,16.21
2018-05-10T22:18:02.555Z,16.20
2018-05-10T22:20:30.101Z,16.25
2018-05-10T22:23:00.049Z,16.24
2018-05-10T22:25:27.656Z,16.24
2018-05-10T22:27:55.308Z,16.15
2018-05-10T22:30:23.238Z,16.18
2018-05-10T22:32:51.698Z,16.22
2018-05-10T22:35:19.555Z,16.27
2018-05-10T22:37:47.223Z,16.24
2018-05-10T22:40:14.939Z,16.18
2018-05-10T22:42:42.573Z,16.16
2018-05-10T22:45:10.520Z,16.14
2018-05-10T22:47:38.207Z,16.11
2018-05-10T22:50:05.796Z,16.14
2018-05-10T22:52:33.429Z,16.16
2018-05-10T22:55:01.083Z,16.16
2018-05-10T22:57:28.748Z,16.21
2018-05-10T22:59:56.237Z,16.22
2018-05-10T23:02:23.752Z,16.23
2018-05-10T23:04:51.276Z,16.26
2018-05-10T23:07:18.827Z,16.25
2018-05-10T23:09:46.378Z,16.24
2018-05-10T23:12:13.986Z,16.23
2018-05-10T23:14:41.434Z,16.27
2018-05-10T23:17:10.226Z,16.33
2018-05-10T23:19:38.875Z,16.24
2018-05-10T23:22:08.209Z,16.25
2018-05-10T23:24:35.804Z,16.28
2018-05-10T23:27:03.481Z,16.29
2018-05-10T23:29:31.140Z,16.15
2018-05-10T23:31:58.679Z,15.99
2018-05-10T23:34:26.328Z,15.86
2018-05-10T23:42:34.623Z,15.70
2018-05-10T23:45:02.305Z,15.74
2018-05-10T23:47:29.978Z,15.80
2018-05-10T23:49:57.565Z,15.86
2018-05-10T23:52:25.176Z,15.80
2018-05-10T23:54:52.706Z,15.72
2018-05-10T23:57:20.257Z,15.60
2018-05-10T23:59:47.779Z,15.57
